sensor_id;sensor_type;location;lat;lon;timestamp;temperature;humidity
55771;DHT22;41687;-33.234;-60.334;2023-04-28T00:00:53;20.80;83.40
55771;DHT22;41687;-33.234;-60.334;2023-04-28T00:03:21;20.80;83.60
55771;DHT22;41687;-33.234;-60.334;2023-04-28T00:05:49;20.80;83.50
55771;DHT22;41687;-33.234;-60.334;2023-04-28T00:08:16;20.80;83.60
55771;DHT22;41687;-33.234;-60.334;2023-04-28T00:10:44;20.70;83.50
55771;DHT22;41687;-33.234;-60.334;2023-04-28T00:13:12;20.70;84.00
55771;DHT22;41687;-33.234;-60.334;2023-04-28T00:15:39;20.70;84.00
55771;DHT22;41687;-33.234;-60.334;2023-04-28T00:18:06;20.70;84.00
55771;DHT22;41687;-33.234;-60.334;2023-04-28T00:20:34;20.70;84.10
55771;DHT22;41687;-33.234;-60.334;2023-04-28T00:23:02;20.70;84.00
55771;DHT22;41687;-33.234;-60.334;2023-04-28T00:25:30;20.70;83.90
55771;DHT22;41687;-33.234;-60.334;2023-04-28T00:27:58;20.70;84.20
55771;DHT22;41687;-33.234;-60.334;2023-04-28T00:30:28;20.70;83.80
55771;DHT22;41687;-33.234;-60.334;2023-04-28T00:32:56;20.70;83.70
55771;DHT22;41687;-33.234;-60.334;2023-04-28T00:35:23;20.70;83.60
55771;DHT22;41687;-33.234;-60.334;2023-04-28T00:37:51;20.70;83.70
55771;DHT22;41687;-33.234;-60.334;2023-04-28T00:40:19;20.70;83.60
55771;DHT22;41687;-33.234;-60.334;2023-04-28T00:42:46;20.70;83.60
55771;DHT22;41687;-33.234;-60.334;2023-04-28T00:45:14;20.60;83.70
55771;DHT22;41687;-33.234;-60.334;2023-04-28T00:47:42;20.60;84.30
55771;DHT22;41687;-33.234;-60.334;2023-04-28T00:50:09;20.60;84.10
55771;DHT22;41687;-33.234;-60.334;2023-04-28T00:52:38;20.60;84.10
55771;DHT22;41687;-33.234;-60.334;2023-04-28T00:55:07;20.60;84.20
55771;DHT22;41687;-33.234;-60.334;2023-04-28T00:57:36;20.60;84.20
55771;DHT22;41687;-33.234;-60.334;2023-04-28T01:00:03;20.50;84.50
55771;DHT22;41687;-33.234;-60.334;2023-04-28T01:02:31;20.50;84.50
55771;DHT22;41687;-33.234;-60.334;2023-04-28T01:04:59;20.50;84.70
55771;DHT22;41687;-33.234;-60.334;2023-04-28T01:07:29;20.50;84.70
55771;DHT22;41687;-33.234;-60.334;2023-04-28T01:09:56;20.50;84.80
55771;DHT22;41687;-33.234;-60.334;2023-04-28T01:12:29;20.50;84.90
55771;DHT22;41687;-33.234;-60.334;2023-04-28T01:14:58;20.50;84.90
55771;DHT22;41687;-33.234;-60.334;2023-04-28T01:17:27;20.40;85.10
55771;DHT22;41687;-33.234;-60.334;2023-04-28T01:19:54;20.40;85.10
55771;DHT22;41687;-33.234;-60.334;2023-04-28T01:22:22;20.40;85.50
55771;DHT22;41687;-33.234;-60.334;2023-04-28T01:24:51;20.40;85.40
55771;DHT22;41687;-33.234;-60.334;2023-04-28T01:27:18;20.40;85.70
55771;DHT22;41687;-33.234;-60.334;2023-04-28T01:29:46;20.30;86.10
55771;DHT22;41687;-33.234;-60.334;2023-04-28T01:32:13;20.30;85.70
55771;DHT22;41687;-33.234;-60.334;2023-04-28T01:34:41;20.30;85.80
55771;DHT22;41687;-33.234;-60.334;2023-04-28T01:37:09;20.30;85.70
55771;DHT22;41687;-33.234;-60.334;2023-04-28T01:39:37;20.20;85.90
55771;DHT22;41687;-33.234;-60.334;2023-04-28T01:42:04;20.10;86.10
55771;DHT22;41687;-33.234;-60.334;2023-04-28T01:44:33;20.00;86.80
55771;DHT22;41687;-33.234;-60.334;2023-04-28T01:47:00;20.00;86.80
55771;DHT22;41687;-33.234;-60.334;2023-04-28T01:49:28;20.00;87.20
55771;DHT22;41687;-33.234;-60.334;2023-04-28T01:51:55;19.90;87.40
55771;DHT22;41687;-33.234;-60.334;2023-04-28T01:54:23;19.90;87.40
55771;DHT22;41687;-33.234;-60.334;2023-04-28T01:56:50;19.80;88.00
55771;DHT22;41687;-33.234;-60.334;2023-04-28T01:59:20;19.80;88.40
55771;DHT22;41687;-33.234;-60.334;2023-04-28T02:01:47;19.70;89.20
55771;DHT22;41687;-33.234;-60.334;2023-04-28T02:04:15;19.60;89.60
55771;DHT22;41687;-33.234;-60.334;2023-04-28T02:06:43;19.60;89.80
55771;DHT22;41687;-33.234;-60.334;2023-04-28T02:09:12;19.50;90.10
55771;DHT22;41687;-33.234;-60.334;2023-04-28T02:11:39;19.50;90.10
55771;DHT22;41687;-33.234;-60.334;2023-04-28T02:14:07;19.40;90.00
55771;DHT22;41687;-33.234;-60.334;2023-04-28T02:16:34;19.30;90.70
55771;DHT22;41687;-33.234;-60.334;2023-04-28T02:19:02;19.30;90.40
55771;DHT22;41687;-33.234;-60.334;2023-04-28T02:21:30;19.30;90.60
55771;DHT22;41687;-33.234;-60.334;2023-04-28T02:23:57;19.40;90.50
55771;DHT22;41687;-33.234;-60.334;2023-04-28T02:26:25;19.30;90.30
55771;DHT22;41687;-33.234;-60.334;2023-04-28T02:28:53;19.40;90.70
55771;DHT22;41687;-33.234;-60.334;2023-04-28T02:31:21;19.40;90.40
55771;DHT22;41687;-33.234;-60.334;2023-04-28T02:33:48;19.40;90.40
55771;DHT22;41687;-33.234;-60.334;2023-04-28T02:36:16;19.40;90.60
55771;DHT22;41687;-33.234;-60.334;2023-04-28T02:38:44;19.40;90.80
55771;DHT22;41687;-33.234;-60.334;2023-04-28T02:41:12;19.20;91.10
55771;DHT22;41687;-33.234;-60.334;2023-04-28T02:43:41;19.20;91.10
55771;DHT22;41687;-33.234;-60.334;2023-04-28T02:46:08;19.20;91.20
55771;DHT22;41687;-33.234;-60.334;2023-04-28T02:48:37;19.20;91.00
55771;DHT22;41687;-33.234;-60.334;2023-04-28T02:51:04;19.30;90.70
55771;DHT22;41687;-33.234;-60.334;2023-04-28T02:53:33;19.30;90.80
55771;DHT22;41687;-33.234;-60.334;2023-04-28T02:56:00;19.20;90.80
55771;DHT22;41687;-33.234;-60.334;2023-04-28T02:58:31;19.10;90.70
55771;DHT22;41687;-33.234;-60.334;2023-04-28T03:00:59;19.20;90.40
55771;DHT22;41687;-33.234;-60.334;2023-04-28T03:03:27;19.20;90.50
55771;DHT22;41687;-33.234;-60.334;2023-04-28T03:05:54;19.20;90.40
55771;DHT22;41687;-33.234;-60.334;2023-04-28T03:08:23;19.30;90.40
55771;DHT22;41687;-33.234;-60.334;2023-04-28T03:10:50;19.10;90.40
55771;DHT22;41687;-33.234;-60.334;2023-04-28T03:13:18;19.00;90.90
55771;DHT22;41687;-33.234;-60.334;2023-04-28T03:15:45;18.90;91.10
55771;DHT22;41687;-33.234;-60.334;2023-04-28T03:18:13;18.90;91.30
55771;DHT22;41687;-33.234;-60.334;2023-04-28T03:20:41;18.80;91.20
55771;DHT22;41687;-33.234;-60.334;2023-04-28T03:23:10;18.70;91.50
55771;DHT22;41687;-33.234;-60.334;2023-04-28T03:25:37;18.80;91.30
55771;DHT22;41687;-33.234;-60.334;2023-04-28T03:28:05;18.80;91.50
55771;DHT22;41687;-33.234;-60.334;2023-04-28T03:30:32;18.90;91.20
55771;DHT22;41687;-33.234;-60.334;2023-04-28T03:33:00;18.90;91.50
55771;DHT22;41687;-33.234;-60.334;2023-04-28T03:35:27;18.90;91.40
55771;DHT22;41687;-33.234;-60.334;2023-04-28T03:37:55;18.80;91.70
55771;DHT22;41687;-33.234;-60.334;2023-04-28T03:40:23;18.80;91.90
55771;DHT22;41687;-33.234;-60.334;2023-04-28T03:43:10;18.70;92.10
55771;DHT22;41687;-33.234;-60.334;2023-04-28T03:45:50;18.60;92.60
55771;DHT22;41687;-33.234;-60.334;2023-04-28T03:48:18;18.60;92.40
55771;DHT22;41687;-33.234;-60.334;2023-04-28T03:50:45;18.60;92.30
55771;DHT22;41687;-33.234;-60.334;2023-04-28T03:53:14;18.60;92.30
55771;DHT22;41687;-33.234;-60.334;2023-04-28T03:55:42;18.50;92.10
55771;DHT22;41687;-33.234;-60.334;2023-04-28T03:58:11;18.40;92.00
55771;DHT22;41687;-33.234;-60.334;2023-04-28T04:00:39;18.40;92.20
55771;DHT22;41687;-33.234;-60.334;2023-04-28T04:03:07;18.40;92.20
55771;DHT22;41687;-33.234;-60.334;2023-04-28T04:05:34;18.20;92.60
55771;DHT22;41687;-33.234;-60.334;2023-04-28T04:08:03;18.10;92.50
55771;DHT22;41687;-33.234;-60.334;2023-04-28T04:10:31;18.10;92.90
55771;DHT22;41687;-33.234;-60.334;2023-04-28T04:12:59;18.10;92.70
55771;DHT22;41687;-33.234;-60.334;2023-04-28T04:15:26;18.10;92.80
55771;DHT22;41687;-33.234;-60.334;2023-04-28T04:17:54;18.20;92.90
55771;DHT22;41687;-33.234;-60.334;2023-04-28T04:20:23;18.20;92.80
55771;DHT22;41687;-33.234;-60.334;2023-04-28T04:22:51;18.20;92.70
55771;DHT22;41687;-33.234;-60.334;2023-04-28T04:25:19;18.30;92.70
55771;DHT22;41687;-33.234;-60.334;2023-04-28T04:27:48;18.30;92.70
55771;DHT22;41687;-33.234;-60.334;2023-04-28T04:30:15;18.30;92.80
55771;DHT22;41687;-33.234;-60.334;2023-04-28T04:32:43;18.20;92.70
55771;DHT22;41687;-33.234;-60.334;2023-04-28T04:35:12;18.20;92.90
55771;DHT22;41687;-33.234;-60.334;2023-04-28T04:37:40;18.20;92.70
55771;DHT22;41687;-33.234;-60.334;2023-04-28T04:40:08;18.20;92.90
55771;DHT22;41687;-33.234;-60.334;2023-04-28T04:42:43;18.20;92.80
55771;DHT22;41687;-33.234;-60.334;2023-04-28T04:45:17;18.20;92.80
55771;DHT22;41687;-33.234;-60.334;2023-04-28T04:47:46;18.20;92.90
55771;DHT22;41687;-33.234;-60.334;2023-04-28T04:50:14;18.20;93.10
55771;DHT22;41687;-33.234;-60.334;2023-04-28T04:52:41;18.10;93.20
55771;DHT22;41687;-33.234;-60.334;2023-04-28T04:55:09;18.10;93.40
55771;DHT22;41687;-33.234;-60.334;2023-04-28T04:57:41;18.00;93.60
55771;DHT22;41687;-33.234;-60.334;2023-04-28T05:00:29;18.10;93.50
55771;DHT22;41687;-33.234;-60.334;2023-04-28T05:02:59;18.10;93.30
55771;DHT22;41687;-33.234;-60.334;2023-04-28T05:05:27;18.10;93.60
55771;DHT22;41687;-33.234;-60.334;2023-04-28T05:08:14;18.10;93.60
55771;DHT22;41687;-33.234;-60.334;2023-04-28T05:10:42;18.10;93.70
55771;DHT22;41687;-33.234;-60.334;2023-04-28T05:13:10;18.00;93.90
55771;DHT22;41687;-33.234;-60.334;2023-04-28T05:15:38;17.90;93.80
55771;DHT22;41687;-33.234;-60.334;2023-04-28T05:18:29;17.90;94.00
55771;DHT22;41687;-33.234;-60.334;2023-04-28T05:20:57;17.80;94.10
55771;DHT22;41687;-33.234;-60.334;2023-04-28T05:23:24;17.80;94.10
55771;DHT22;41687;-33.234;-60.334;2023-04-28T05:25:52;17.90;93.70
55771;DHT22;41687;-33.234;-60.334;2023-04-28T05:28:19;17.80;94.00
55771;DHT22;41687;-33.234;-60.334;2023-04-28T05:30:48;17.80;93.90
55771;DHT22;41687;-33.234;-60.334;2023-04-28T05:33:16;17.90;94.00
55771;DHT22;41687;-33.234;-60.334;2023-04-28T05:35:44;17.90;93.80
55771;DHT22;41687;-33.234;-60.334;2023-04-28T05:38:12;17.70;94.20
55771;DHT22;41687;-33.234;-60.334;2023-04-28T05:40:41;17.70;94.30
55771;DHT22;41687;-33.234;-60.334;2023-04-28T05:43:11;17.60;94.80
55771;DHT22;41687;-33.234;-60.334;2023-04-28T05:45:39;17.60;94.70
55771;DHT22;41687;-33.234;-60.334;2023-04-28T05:48:07;17.70;94.80
55771;DHT22;41687;-33.234;-60.334;2023-04-28T05:50:34;17.70;94.50
55771;DHT22;41687;-33.234;-60.334;2023-04-28T05:53:02;17.70;94.60
55771;DHT22;41687;-33.234;-60.334;2023-04-28T05:55:30;17.60;94.80
55771;DHT22;41687;-33.234;-60.334;2023-04-28T05:57:58;17.60;94.80
55771;DHT22;41687;-33.234;-60.334;2023-04-28T06:00:26;17.60;94.80
55771;DHT22;41687;-33.234;-60.334;2023-04-28T06:02:59;17.50;94.90
55771;DHT22;41687;-33.234;-60.334;2023-04-28T06:05:27;17.60;94.70
55771;DHT22;41687;-33.234;-60.334;2023-04-28T06:07:55;17.50;94.80
55771;DHT22;41687;-33.234;-60.334;2023-04-28T06:10:25;17.50;94.80
55771;DHT22;41687;-33.234;-60.334;2023-04-28T06:12:52;17.50;94.70
55771;DHT22;41687;-33.234;-60.334;2023-04-28T06:15:20;17.50;94.70
55771;DHT22;41687;-33.234;-60.334;2023-04-28T06:17:48;17.50;94.80
55771;DHT22;41687;-33.234;-60.334;2023-04-28T06:20:16;17.50;94.90
55771;DHT22;41687;-33.234;-60.334;2023-04-28T06:22:44;17.40;95.00
55771;DHT22;41687;-33.234;-60.334;2023-04-28T06:25:12;17.40;94.90
55771;DHT22;41687;-33.234;-60.334;2023-04-28T06:27:44;17.30;95.30
55771;DHT22;41687;-33.234;-60.334;2023-04-28T06:30:20;17.20;95.50
55771;DHT22;41687;-33.234;-60.334;2023-04-28T06:32:49;17.30;95.70
55771;DHT22;41687;-33.234;-60.334;2023-04-28T06:35:17;17.20;95.70
55771;DHT22;41687;-33.234;-60.334;2023-04-28T06:37:45;17.10;95.70
55771;DHT22;41687;-33.234;-60.334;2023-04-28T06:40:14;17.10;95.60
55771;DHT22;41687;-33.234;-60.334;2023-04-28T06:42:47;17.30;95.60
55771;DHT22;41687;-33.234;-60.334;2023-04-28T06:45:22;17.10;95.60
55771;DHT22;41687;-33.234;-60.334;2023-04-28T06:47:49;17.10;95.90
55771;DHT22;41687;-33.234;-60.334;2023-04-28T06:50:18;17.10;96.00
55771;DHT22;41687;-33.234;-60.334;2023-04-28T06:52:45;17.00;95.80
55771;DHT22;41687;-33.234;-60.334;2023-04-28T06:55:15;17.00;96.00
55771;DHT22;41687;-33.234;-60.334;2023-04-28T06:57:43;17.00;95.90
55771;DHT22;41687;-33.234;-60.334;2023-04-28T07:00:11;16.90;96.10
55771;DHT22;41687;-33.234;-60.334;2023-04-28T07:02:39;16.90;96.20
55771;DHT22;41687;-33.234;-60.334;2023-04-28T07:05:07;16.90;96.10
55771;DHT22;41687;-33.234;-60.334;2023-04-28T07:07:35;16.90;96.30
55771;DHT22;41687;-33.234;-60.334;2023-04-28T07:10:05;17.00;96.20
55771;DHT22;41687;-33.234;-60.334;2023-04-28T07:12:33;16.90;96.50
55771;DHT22;41687;-33.234;-60.334;2023-04-28T07:15:00;16.90;96.50
55771;DHT22;41687;-33.234;-60.334;2023-04-28T07:17:28;16.80;96.50
55771;DHT22;41687;-33.234;-60.334;2023-04-28T07:19:55;16.70;96.80
55771;DHT22;41687;-33.234;-60.334;2023-04-28T07:22:23;16.80;96.60
55771;DHT22;41687;-33.234;-60.334;2023-04-28T07:24:51;16.80;96.60
55771;DHT22;41687;-33.234;-60.334;2023-04-28T07:27:18;16.80;96.40
55771;DHT22;41687;-33.234;-60.334;2023-04-28T07:29:46;16.80;96.70
55771;DHT22;41687;-33.234;-60.334;2023-04-28T07:32:13;16.80;96.70
55771;DHT22;41687;-33.234;-60.334;2023-04-28T07:34:41;16.80;96.60
55771;DHT22;41687;-33.234;-60.334;2023-04-28T07:37:08;16.80;96.40
55771;DHT22;41687;-33.234;-60.334;2023-04-28T07:39:38;16.80;96.70
55771;DHT22;41687;-33.234;-60.334;2023-04-28T07:42:06;16.80;96.60
55771;DHT22;41687;-33.234;-60.334;2023-04-28T07:44:34;16.70;96.70
55771;DHT22;41687;-33.234;-60.334;2023-04-28T07:47:02;16.70;96.60
55771;DHT22;41687;-33.234;-60.334;2023-04-28T07:49:30;16.70;96.90
55771;DHT22;41687;-33.234;-60.334;2023-04-28T07:51:57;16.60;97.10
55771;DHT22;41687;-33.234;-60.334;2023-04-28T07:54:25;16.70;96.90
55771;DHT22;41687;-33.234;-60.334;2023-04-28T07:56:52;16.60;97.20
55771;DHT22;41687;-33.234;-60.334;2023-04-28T07:59:22;16.70;96.80
55771;DHT22;41687;-33.234;-60.334;2023-04-28T08:01:49;16.60;96.90
55771;DHT22;41687;-33.234;-60.334;2023-04-28T08:04:17;16.60;97.20
55771;DHT22;41687;-33.234;-60.334;2023-04-28T08:06:45;16.70;97.10
55771;DHT22;41687;-33.234;-60.334;2023-04-28T08:09:12;16.60;97.30
55771;DHT22;41687;-33.234;-60.334;2023-04-28T08:11:40;16.60;97.30
55771;DHT22;41687;-33.234;-60.334;2023-04-28T08:14:08;16.50;97.60
55771;DHT22;41687;-33.234;-60.334;2023-04-28T08:16:35;16.60;97.50
55771;DHT22;41687;-33.234;-60.334;2023-04-28T08:19:06;16.50;97.80
55771;DHT22;41687;-33.234;-60.334;2023-04-28T08:21:33;16.40;98.10
55771;DHT22;41687;-33.234;-60.334;2023-04-28T08:24:02;16.40;98.00
55771;DHT22;41687;-33.234;-60.334;2023-04-28T08:26:30;16.50;97.70
55771;DHT22;41687;-33.234;-60.334;2023-04-28T08:28:58;16.50;98.00
55771;DHT22;41687;-33.234;-60.334;2023-04-28T08:31:25;16.50;98.00
55771;DHT22;41687;-33.234;-60.334;2023-04-28T08:33:53;16.40;98.10
55771;DHT22;41687;-33.234;-60.334;2023-04-28T08:36:20;16.40;98.00
55771;DHT22;41687;-33.234;-60.334;2023-04-28T08:38:49;16.40;98.20
55771;DHT22;41687;-33.234;-60.334;2023-04-28T08:41:17;16.40;98.40
55771;DHT22;41687;-33.234;-60.334;2023-04-28T08:43:45;16.30;98.70
55771;DHT22;41687;-33.234;-60.334;2023-04-28T08:46:14;16.10;98.90
55771;DHT22;41687;-33.234;-60.334;2023-04-28T08:48:43;16.10;98.60
55771;DHT22;41687;-33.234;-60.334;2023-04-28T08:51:26;16.20;98.70
55771;DHT22;41687;-33.234;-60.334;2023-04-28T08:53:59;16.10;99.10
55771;DHT22;41687;-33.234;-60.334;2023-04-28T08:56:34;16.10;98.90
55771;DHT22;41687;-33.234;-60.334;2023-04-28T08:59:03;16.10;99.00
55771;DHT22;41687;-33.234;-60.334;2023-04-28T09:01:31;16.10;99.30
55771;DHT22;41687;-33.234;-60.334;2023-04-28T09:04:02;16.10;98.90
55771;DHT22;41687;-33.234;-60.334;2023-04-28T09:06:36;16.10;98.80
55771;DHT22;41687;-33.234;-60.334;2023-04-28T09:09:26;16.10;99.00
55771;DHT22;41687;-33.234;-60.334;2023-04-28T09:12:01;16.00;99.30
55771;DHT22;41687;-33.234;-60.334;2023-04-28T09:14:32;16.10;99.00
55771;DHT22;41687;-33.234;-60.334;2023-04-28T09:17:01;16.00;99.00
55771;DHT22;41687;-33.234;-60.334;2023-04-28T09:19:36;16.00;99.30
55771;DHT22;41687;-33.234;-60.334;2023-04-28T09:22:05;16.00;99.30
55771;DHT22;41687;-33.234;-60.334;2023-04-28T09:24:38;16.00;99.30
55771;DHT22;41687;-33.234;-60.334;2023-04-28T09:27:08;16.10;99.30
55771;DHT22;41687;-33.234;-60.334;2023-04-28T09:29:52;16.00;99.50
55771;DHT22;41687;-33.234;-60.334;2023-04-28T09:32:21;16.00;99.70
55771;DHT22;41687;-33.234;-60.334;2023-04-28T09:34:51;15.90;99.90
55771;DHT22;41687;-33.234;-60.334;2023-04-28T09:37:23;15.90;99.90
55771;DHT22;41687;-33.234;-60.334;2023-04-28T09:39:53;15.90;99.90
55771;DHT22;41687;-33.234;-60.334;2023-04-28T09:42:42;15.90;99.80
55771;DHT22;41687;-33.234;-60.334;2023-04-28T09:45:13;15.90;99.90
55771;DHT22;41687;-33.234;-60.334;2023-04-28T09:47:42;15.90;99.80
55771;DHT22;41687;-33.234;-60.334;2023-04-28T09:50:12;15.90;99.90
55771;DHT22;41687;-33.234;-60.334;2023-04-28T09:52:55;16.00;99.80
55771;DHT22;41687;-33.234;-60.334;2023-04-28T09:55:25;16.00;99.90
55771;DHT22;41687;-33.234;-60.334;2023-04-28T09:57:54;15.90;99.90
55771;DHT22;41687;-33.234;-60.334;2023-04-28T10:00:22;15.90;99.90
55771;DHT22;41687;-33.234;-60.334;2023-04-28T10:02:50;15.80;99.90
55771;DHT22;41687;-33.234;-60.334;2023-04-28T10:05:19;15.80;99.90
55771;DHT22;41687;-33.234;-60.334;2023-04-28T10:07:48;15.90;99.90
55771;DHT22;41687;-33.234;-60.334;2023-04-28T10:10:16;15.80;99.90
55771;DHT22;41687;-33.234;-60.334;2023-04-28T10:12:45;15.80;99.90
55771;DHT22;41687;-33.234;-60.334;2023-04-28T10:15:13;15.70;99.90
55771;DHT22;41687;-33.234;-60.334;2023-04-28T10:17:40;15.70;99.90
55771;DHT22;41687;-33.234;-60.334;2023-04-28T10:20:08;15.70;99.90
55771;DHT22;41687;-33.234;-60.334;2023-04-28T10:25:26;15.70;99.90
55771;DHT22;41687;-33.234;-60.334;2023-04-28T10:27:55;15.80;99.90
55771;DHT22;41687;-33.234;-60.334;2023-04-28T10:30:24;15.80;99.90
55771;DHT22;41687;-33.234;-60.334;2023-04-28T10:38:10;15.80;99.90
55771;DHT22;41687;-33.234;-60.334;2023-04-28T10:40:40;15.80;99.90
55771;DHT22;41687;-33.234;-60.334;2023-04-28T10:43:12;15.80;99.90
55771;DHT22;41687;-33.234;-60.334;2023-04-28T10:51:20;15.80;99.90
55771;DHT22;41687;-33.234;-60.334;2023-04-28T10:56:25;15.80;99.90
55771;DHT22;41687;-33.234;-60.334;2023-04-28T10:58:53;15.90;99.90
55771;DHT22;41687;-33.234;-60.334;2023-04-28T11:04:06;16.00;99.90
55771;DHT22;41687;-33.234;-60.334;2023-04-28T11:06:41;16.00;99.90
55771;DHT22;41687;-33.234;-60.334;2023-04-28T11:14:33;18.50;96.60
55771;DHT22;41687;-33.234;-60.334;2023-04-28T11:17:03;19.50;94.00
55771;DHT22;41687;-33.234;-60.334;2023-04-28T11:19:42;20.00;92.60
55771;DHT22;41687;-33.234;-60.334;2023-04-28T11:22:20;20.10;92.20
55771;DHT22;41687;-33.234;-60.334;2023-04-28T11:25:00;21.20;90.60
55771;DHT22;41687;-33.234;-60.334;2023-04-28T11:27:29;22.40;88.50
55771;DHT22;41687;-33.234;-60.334;2023-04-28T11:29:57;23.70;81.20
55771;DHT22;41687;-33.234;-60.334;2023-04-28T11:32:28;24.20;77.60
55771;DHT22;41687;-33.234;-60.334;2023-04-28T11:34:55;25.60;76.20
55771;DHT22;41687;-33.234;-60.334;2023-04-28T11:37:23;26.40;73.60
55771;DHT22;41687;-33.234;-60.334;2023-04-28T11:39:52;27.00;72.60
55771;DHT22;41687;-33.234;-60.334;2023-04-28T11:42:19;26.60;69.70
55771;DHT22;41687;-33.234;-60.334;2023-04-28T11:44:51;26.70;70.40
55771;DHT22;41687;-33.234;-60.334;2023-04-28T11:47:32;26.70;69.00
55771;DHT22;41687;-33.234;-60.334;2023-04-28T11:50:01;27.40;65.50
55771;DHT22;41687;-33.234;-60.334;2023-04-28T11:52:28;27.30;65.20
55771;DHT22;41687;-33.234;-60.334;2023-04-28T11:54:56;26.50;69.20
55771;DHT22;41687;-33.234;-60.334;2023-04-28T11:57:25;26.50;70.10
55771;DHT22;41687;-33.234;-60.334;2023-04-28T12:00:10;26.90;67.10
55771;DHT22;41687;-33.234;-60.334;2023-04-28T12:02:38;26.40;67.10
55771;DHT22;41687;-33.234;-60.334;2023-04-28T12:05:06;25.60;67.60
55771;DHT22;41687;-33.234;-60.334;2023-04-28T12:07:44;25.20;72.20
55771;DHT22;41687;-33.234;-60.334;2023-04-28T12:10:13;25.40;69.00
55771;DHT22;41687;-33.234;-60.334;2023-04-28T12:12:45;24.60;69.90
55771;DHT22;41687;-33.234;-60.334;2023-04-28T12:15:13;24.40;72.80
55771;DHT22;41687;-33.234;-60.334;2023-04-28T12:17:42;24.70;74.00
55771;DHT22;41687;-33.234;-60.334;2023-04-28T12:20:11;24.30;71.70
55771;DHT22;41687;-33.234;-60.334;2023-04-28T12:22:58;24.40;73.90
55771;DHT22;41687;-33.234;-60.334;2023-04-28T12:25:26;23.90;73.80
55771;DHT22;41687;-33.234;-60.334;2023-04-28T12:28:04;23.90;73.60
55771;DHT22;41687;-33.234;-60.334;2023-04-28T12:30:35;24.00;73.00
55771;DHT22;41687;-33.234;-60.334;2023-04-28T12:35:56;24.40;72.40
55771;DHT22;41687;-33.234;-60.334;2023-04-28T12:38:25;24.40;74.60
55771;DHT22;41687;-33.234;-60.334;2023-04-28T12:40:53;23.70;72.50
55771;DHT22;41687;-33.234;-60.334;2023-04-28T12:43:21;23.50;74.20
55771;DHT22;41687;-33.234;-60.334;2023-04-28T12:45:50;23.50;76.40
55771;DHT22;41687;-33.234;-60.334;2023-04-28T12:48:22;23.80;76.10
55771;DHT22;41687;-33.234;-60.334;2023-04-28T12:50:53;23.80;75.80
55771;DHT22;41687;-33.234;-60.334;2023-04-28T12:53:20;23.60;77.00
55771;DHT22;41687;-33.234;-60.334;2023-04-28T12:55:48;23.80;74.20
55771;DHT22;41687;-33.234;-60.334;2023-04-28T12:58:15;23.80;76.60
55771;DHT22;41687;-33.234;-60.334;2023-04-28T13:00:44;24.10;74.20
55771;DHT22;41687;-33.234;-60.334;2023-04-28T13:03:11;24.30;75.30
55771;DHT22;41687;-33.234;-60.334;2023-04-28T13:05:38;24.60;74.50
55771;DHT22;41687;-33.234;-60.334;2023-04-28T13:08:06;24.70;73.50
55771;DHT22;41687;-33.234;-60.334;2023-04-28T13:10:33;23.70;72.90
55771;DHT22;41687;-33.234;-60.334;2023-04-28T13:13:01;23.70;76.10
55771;DHT22;41687;-33.234;-60.334;2023-04-28T13:15:29;23.60;76.40
55771;DHT22;41687;-33.234;-60.334;2023-04-28T13:17:57;23.70;76.20
55771;DHT22;41687;-33.234;-60.334;2023-04-28T13:20:25;23.70;76.30
55771;DHT22;41687;-33.234;-60.334;2023-04-28T13:22:52;23.60;76.50
55771;DHT22;41687;-33.234;-60.334;2023-04-28T13:25:20;23.50;75.90
55771;DHT22;41687;-33.234;-60.334;2023-04-28T13:27:48;23.20;75.50
55771;DHT22;41687;-33.234;-60.334;2023-04-28T13:30:16;22.50;77.40
55771;DHT22;41687;-33.234;-60.334;2023-04-28T13:32:43;22.70;78.80
55771;DHT22;41687;-33.234;-60.334;2023-04-28T13:35:11;22.60;77.60
55771;DHT22;41687;-33.234;-60.334;2023-04-28T13:37:38;22.30;80.00
55771;DHT22;41687;-33.234;-60.334;2023-04-28T13:40:12;22.40;79.10
55771;DHT22;41687;-33.234;-60.334;2023-04-28T13:42:39;22.30;80.20
55771;DHT22;41687;-33.234;-60.334;2023-04-28T13:45:07;22.60;79.60
55771;DHT22;41687;-33.234;-60.334;2023-04-28T13:47:34;22.60;80.00
55771;DHT22;41687;-33.234;-60.334;2023-04-28T13:50:02;22.90;80.00
55771;DHT22;41687;-33.234;-60.334;2023-04-28T13:52:29;23.00;79.70
55771;DHT22;41687;-33.234;-60.334;2023-04-28T13:54:57;23.00;79.30
55771;DHT22;41687;-33.234;-60.334;2023-04-28T13:57:26;22.90;77.40
55771;DHT22;41687;-33.234;-60.334;2023-04-28T13:59:54;23.00;78.40
55771;DHT22;41687;-33.234;-60.334;2023-04-28T14:02:21;22.60;79.50
55771;DHT22;41687;-33.234;-60.334;2023-04-28T14:04:50;22.60;79.40
55771;DHT22;41687;-33.234;-60.334;2023-04-28T14:07:19;22.80;79.20
55771;DHT22;41687;-33.234;-60.334;2023-04-28T14:09:48;22.70;78.10
55771;DHT22;41687;-33.234;-60.334;2023-04-28T14:12:16;22.40;78.20
55771;DHT22;41687;-33.234;-60.334;2023-04-28T14:14:46;22.80;78.70
55771;DHT22;41687;-33.234;-60.334;2023-04-28T14:17:15;23.00;78.80
55771;DHT22;41687;-33.234;-60.334;2023-04-28T14:19:43;23.20;77.60
55771;DHT22;41687;-33.234;-60.334;2023-04-28T14:22:11;22.90;76.50
55771;DHT22;41687;-33.234;-60.334;2023-04-28T14:24:41;23.10;77.50
55771;DHT22;41687;-33.234;-60.334;2023-04-28T14:27:09;23.10;76.70
55771;DHT22;41687;-33.234;-60.334;2023-04-28T14:29:37;23.20;77.40
55771;DHT22;41687;-33.234;-60.334;2023-04-28T14:32:05;23.40;77.00
55771;DHT22;41687;-33.234;-60.334;2023-04-28T14:34:33;23.20;75.10
55771;DHT22;41687;-33.234;-60.334;2023-04-28T14:37:01;23.10;75.20
55771;DHT22;41687;-33.234;-60.334;2023-04-28T14:39:28;22.80;76.10
55771;DHT22;41687;-33.234;-60.334;2023-04-28T14:41:56;22.60;76.90
55771;DHT22;41687;-33.234;-60.334;2023-04-28T14:44:23;22.60;77.60
55771;DHT22;41687;-33.234;-60.334;2023-04-28T14:46:52;22.50;77.00
55771;DHT22;41687;-33.234;-60.334;2023-04-28T14:49:19;22.70;78.40
55771;DHT22;41687;-33.234;-60.334;2023-04-28T14:51:48;22.60;77.90
55771;DHT22;41687;-33.234;-60.334;2023-04-28T14:54:16;23.00;77.90
55771;DHT22;41687;-33.234;-60.334;2023-04-28T14:56:44;22.90;77.70
55771;DHT22;41687;-33.234;-60.334;2023-04-28T14:59:11;22.70;77.00
55771;DHT22;41687;-33.234;-60.334;2023-04-28T15:01:39;22.60;77.90
55771;DHT22;41687;-33.234;-60.334;2023-04-28T15:04:07;22.60;77.10
55771;DHT22;41687;-33.234;-60.334;2023-04-28T15:06:35;22.70;77.70
55771;DHT22;41687;-33.234;-60.334;2023-04-28T15:09:03;22.80;76.60
55771;DHT22;41687;-33.234;-60.334;2023-04-28T15:11:31;22.80;76.90
55771;DHT22;41687;-33.234;-60.334;2023-04-28T15:13:59;22.80;77.00
55771;DHT22;41687;-33.234;-60.334;2023-04-28T15:16:26;22.90;76.90
55771;DHT22;41687;-33.234;-60.334;2023-04-28T15:18:54;23.00;75.80
55771;DHT22;41687;-33.234;-60.334;2023-04-28T15:21:22;22.70;76.50
55771;DHT22;41687;-33.234;-60.334;2023-04-28T15:23:51;22.90;76.70
55771;DHT22;41687;-33.234;-60.334;2023-04-28T15:26:19;22.70;76.20